sensor_id;sensor_type;location;lat;lon;timestamp;P1;durP1;ratioP1;P2;durP2;ratioP2
8281;SDS011;25606;42.686;23.136;2023-06-14T00:02:20;7.03;;;4.17;;
8281;SDS011;25606;42.686;23.136;2023-06-14T00:04:48;4.47;;;4.03;;
8281;SDS011;25606;42.686;23.136;2023-06-14T00:07:17;4.50;;;4.07;;
8281;SDS011;25606;42.686;23.136;2023-06-14T00:09:45;5.13;;;3.90;;
8281;SDS011;25606;42.686;23.136;2023-06-14T00:12:12;6.40;;;3.97;;
8281;SDS011;25606;42.686;23.136;2023-06-14T00:14:39;5.03;;;4.33;;
8281;SDS011;25606;42.686;23.136;2023-06-14T00:17:07;4.73;;;4.17;;
8281;SDS011;25606;42.686;23.136;2023-06-14T00:19:36;6.80;;;4.47;;
8281;SDS011;25606;42.686;23.136;2023-06-14T00:22:04;5.03;;;4.53;;
8281;SDS011;25606;42.686;23.136;2023-06-14T00:24:31;6.13;;;4.23;;
8281;SDS011;25606;42.686;23.136;2023-06-14T00:26:58;4.93;;;4.27;;
8281;SDS011;25606;42.686;23.136;2023-06-14T00:29:26;4.53;;;4.03;;
8281;SDS011;25606;42.686;23.136;2023-06-14T00:31:53;5.03;;;3.87;;
8281;SDS011;25606;42.686;23.136;2023-06-14T00:34:21;4.47;;;4.03;;
8281;SDS011;25606;42.686;23.136;2023-06-14T00:36:50;4.73;;;3.93;;
8281;SDS011;25606;42.686;23.136;2023-06-14T00:39:17;4.70;;;4.07;;
8281;SDS011;25606;42.686;23.136;2023-06-14T00:41:45;6.17;;;4.07;;
8281;SDS011;25606;42.686;23.136;2023-06-14T00:44:13;4.33;;;3.90;;
8281;SDS011;25606;42.686;23.136;2023-06-14T00:46:42;4.20;;;3.60;;
8281;SDS011;25606;42.686;23.136;2023-06-14T00:49:10;5.43;;;3.57;;
8281;SDS011;25606;42.686;23.136;2023-06-14T00:51:38;5.00;;;3.83;;
8281;SDS011;25606;42.686;23.136;2023-06-14T00:54:08;4.13;;;3.77;;
8281;SDS011;25606;42.686;23.136;2023-06-14T00:56:35;7.93;;;4.10;;
8281;SDS011;25606;42.686;23.136;2023-06-14T00:59:03;5.37;;;4.10;;
8281;SDS011;25606;42.686;23.136;2023-06-14T01:01:31;5.03;;;4.10;;
8281;SDS011;25606;42.686;23.136;2023-06-14T01:03:58;3.83;;;3.10;;
8281;SDS011;25606;42.686;23.136;2023-06-14T01:06:28;4.57;;;4.03;;
8281;SDS011;25606;42.686;23.136;2023-06-14T01:09:01;5.23;;;4.27;;
8281;SDS011;25606;42.686;23.136;2023-06-14T01:11:33;4.53;;;4.07;;
8281;SDS011;25606;42.686;23.136;2023-06-14T01:14:04;3.87;;;3.53;;
8281;SDS011;25606;42.686;23.136;2023-06-14T01:16:32;5.87;;;4.30;;
8281;SDS011;25606;42.686;23.136;2023-06-14T01:19:01;4.20;;;3.70;;
8281;SDS011;25606;42.686;23.136;2023-06-14T01:21:28;6.03;;;3.80;;
8281;SDS011;25606;42.686;23.136;2023-06-14T01:23:57;4.37;;;3.70;;
8281;SDS011;25606;42.686;23.136;2023-06-14T01:26:25;4.13;;;3.70;;
8281;SDS011;25606;42.686;23.136;2023-06-14T01:28:54;5.70;;;3.73;;
8281;SDS011;25606;42.686;23.136;2023-06-14T01:31:23;4.20;;;3.80;;
8281;SDS011;25606;42.686;23.136;2023-06-14T01:33:51;4.33;;;3.90;;
8281;SDS011;25606;42.686;23.136;2023-06-14T01:36:19;5.73;;;3.67;;
8281;SDS011;25606;42.686;23.136;2023-06-14T01:38:47;5.70;;;3.80;;
8281;SDS011;25606;42.686;23.136;2023-06-14T01:41:17;4.83;;;3.73;;
8281;SDS011;25606;42.686;23.136;2023-06-14T01:43:45;4.33;;;3.77;;
8281;SDS011;25606;42.686;23.136;2023-06-14T01:46:13;4.43;;;3.63;;
8281;SDS011;25606;42.686;23.136;2023-06-14T01:48:42;3.83;;;3.47;;
8281;SDS011;25606;42.686;23.136;2023-06-14T01:51:09;5.67;;;4.07;;
8281;SDS011;25606;42.686;23.136;2023-06-14T01:53:37;4.70;;;3.70;;
8281;SDS011;25606;42.686;23.136;2023-06-14T01:56:05;5.53;;;2.97;;
8281;SDS011;25606;42.686;23.136;2023-06-14T01:58:34;4.33;;;3.63;;
8281;SDS011;25606;42.686;23.136;2023-06-14T02:01:02;4.30;;;3.73;;
8281;SDS011;25606;42.686;23.136;2023-06-14T02:03:30;4.43;;;3.67;;
8281;SDS011;25606;42.686;23.136;2023-06-14T02:05:57;6.10;;;4.13;;
8281;SDS011;25606;42.686;23.136;2023-06-14T02:08:25;4.27;;;3.87;;
8281;SDS011;25606;42.686;23.136;2023-06-14T02:10:52;4.93;;;3.87;;
8281;SDS011;25606;42.686;23.136;2023-06-14T02:13:19;3.90;;;3.53;;
8281;SDS011;25606;42.686;23.136;2023-06-14T02:15:48;5.67;;;3.73;;
8281;SDS011;25606;42.686;23.136;2023-06-14T02:18:19;4.60;;;4.17;;
8281;SDS011;25606;42.686;23.136;2023-06-14T02:20:46;4.50;;;3.83;;
8281;SDS011;25606;42.686;23.136;2023-06-14T02:23:14;4.50;;;4.03;;
8281;SDS011;25606;42.686;23.136;2023-06-14T02:25:41;4.27;;;3.80;;
8281;SDS011;25606;42.686;23.136;2023-06-14T02:28:10;4.33;;;3.93;;
8281;SDS011;25606;42.686;23.136;2023-06-14T02:30:37;6.47;;;4.20;;
8281;SDS011;25606;42.686;23.136;2023-06-14T02:33:07;5.47;;;4.13;;
8281;SDS011;25606;42.686;23.136;2023-06-14T02:35:37;4.70;;;4.20;;
8281;SDS011;25606;42.686;23.136;2023-06-14T02:38:04;5.97;;;4.20;;
8281;SDS011;25606;42.686;23.136;2023-06-14T02:40:32;5.57;;;4.30;;
8281;SDS011;25606;42.686;23.136;2023-06-14T02:42:59;6.07;;;4.00;;
8281;SDS011;25606;42.686;23.136;2023-06-14T02:45:27;4.60;;;3.53;;
8281;SDS011;25606;42.686;23.136;2023-06-14T02:47:54;4.57;;;4.17;;
8281;SDS011;25606;42.686;23.136;2023-06-14T02:50:23;4.57;;;3.67;;
8281;SDS011;25606;42.686;23.136;2023-06-14T02:52:51;5.07;;;4.07;;
8281;SDS011;25606;42.686;23.136;2023-06-14T02:55:21;5.13;;;3.70;;
8281;SDS011;25606;42.686;23.136;2023-06-14T02:57:48;6.23;;;3.23;;
8281;SDS011;25606;42.686;23.136;2023-06-14T03:00:16;4.37;;;3.80;;
8281;SDS011;25606;42.686;23.136;2023-06-14T03:02:44;6.77;;;3.80;;
8281;SDS011;25606;42.686;23.136;2023-06-14T03:05:11;4.33;;;3.43;;
8281;SDS011;25606;42.686;23.136;2023-06-14T03:07:40;4.73;;;3.80;;
8281;SDS011;25606;42.686;23.136;2023-06-14T03:10:10;6.57;;;3.57;;
8281;SDS011;25606;42.686;23.136;2023-06-14T03:12:38;3.70;;;3.30;;
8281;SDS011;25606;42.686;23.136;2023-06-14T03:15:05;6.77;;;3.47;;
8281;SDS011;25606;42.686;23.136;2023-06-14T03:17:34;5.23;;;4.00;;
8281;SDS011;25606;42.686;23.136;2023-06-14T03:20:04;3.83;;;3.50;;
8281;SDS011;25606;42.686;23.136;2023-06-14T03:22:32;4.30;;;3.90;;
8281;SDS011;25606;42.686;23.136;2023-06-14T03:25:01;4.63;;;4.07;;
8281;SDS011;25606;42.686;23.136;2023-06-14T03:27:30;6.43;;;3.90;;
8281;SDS011;25606;42.686;23.136;2023-06-14T03:29:57;4.63;;;3.93;;
8281;SDS011;25606;42.686;23.136;2023-06-14T03:32:25;5.90;;;3.70;;
8281;SDS011;25606;42.686;23.136;2023-06-14T03:34:53;3.60;;;3.23;;
8281;SDS011;25606;42.686;23.136;2023-06-14T03:37:20;3.87;;;3.47;;
8281;SDS011;25606;42.686;23.136;2023-06-14T03:39:48;6.47;;;3.43;;
8281;SDS011;25606;42.686;23.136;2023-06-14T03:42:17;4.00;;;3.60;;
8281;SDS011;25606;42.686;23.136;2023-06-14T03:44:44;4.50;;;3.30;;
8281;SDS011;25606;42.686;23.136;2023-06-14T03:47:11;3.97;;;3.53;;
8281;SDS011;25606;42.686;23.136;2023-06-14T03:49:39;6.03;;;3.93;;
8281;SDS011;25606;42.686;23.136;2023-06-14T03:52:06;3.87;;;3.43;;
8281;SDS011;25606;42.686;23.136;2023-06-14T03:54:34;5.67;;;3.60;;
8281;SDS011;25606;42.686;23.136;2023-06-14T03:57:01;4.57;;;3.47;;
8281;SDS011;25606;42.686;23.136;2023-06-14T03:59:30;3.53;;;3.17;;
8281;SDS011;25606;42.686;23.136;2023-06-14T04:01:57;3.33;;;3.03;;
8281;SDS011;25606;42.686;23.136;2023-06-14T04:04:25;3.90;;;3.17;;
8281;SDS011;25606;42.686;23.136;2023-06-14T04:06:54;4.60;;;3.30;;
8281;SDS011;25606;42.686;23.136;2023-06-14T04:09:23;6.20;;;3.33;;
8281;SDS011;25606;42.686;23.136;2023-06-14T04:11:51;4.10;;;3.53;;
8281;SDS011;25606;42.686;23.136;2023-06-14T04:14:18;3.97;;;3.57;;
8281;SDS011;25606;42.686;23.136;2023-06-14T04:16:47;6.07;;;3.70;;
8281;SDS011;25606;42.686;23.136;2023-06-14T04:19:15;5.20;;;3.63;;
8281;SDS011;25606;42.686;23.136;2023-06-14T04:21:42;5.77;;;4.20;;
8281;SDS011;25606;42.686;23.136;2023-06-14T04:24:10;5.57;;;4.03;;
8281;SDS011;25606;42.686;23.136;2023-06-14T04:26:38;6.00;;;4.10;;
8281;SDS011;25606;42.686;23.136;2023-06-14T04:29:06;4.83;;;3.87;;
8281;SDS011;25606;42.686;23.136;2023-06-14T04:31:33;4.13;;;3.73;;
8281;SDS011;25606;42.686;23.136;2023-06-14T04:34:04;5.07;;;4.17;;
8281;SDS011;25606;42.686;23.136;2023-06-14T04:36:31;5.23;;;4.40;;
8281;SDS011;25606;42.686;23.136;2023-06-14T04:39:02;9.87;;;3.87;;
8281;SDS011;25606;42.686;23.136;2023-06-14T04:41:29;4.40;;;3.47;;
8281;SDS011;25606;42.686;23.136;2023-06-14T04:43:57;5.20;;;4.33;;
8281;SDS011;25606;42.686;23.136;2023-06-14T04:46:26;4.63;;;4.07;;
8281;SDS011;25606;42.686;23.136;2023-06-14T04:48:55;5.17;;;4.37;;
8281;SDS011;25606;42.686;23.136;2023-06-14T04:51:24;5.30;;;4.50;;
8281;SDS011;25606;42.686;23.136;2023-06-14T04:53:55;5.70;;;4.73;;
8281;SDS011;25606;42.686;23.136;2023-06-14T04:56:23;6.43;;;4.30;;
8281;SDS011;25606;42.686;23.136;2023-06-14T04:58:51;5.00;;;4.23;;
8281;SDS011;25606;42.686;23.136;2023-06-14T05:01:19;4.37;;;3.63;;
8281;SDS011;25606;42.686;23.136;2023-06-14T05:03:48;4.73;;;3.80;;
8281;SDS011;25606;42.686;23.136;2023-06-14T05:06:15;5.47;;;4.37;;
8281;SDS011;25606;42.686;23.136;2023-06-14T05:08:45;5.40;;;4.33;;
8281;SDS011;25606;42.686;23.136;2023-06-14T05:11:12;4.90;;;4.30;;
8281;SDS011;25606;42.686;23.136;2023-06-14T05:13:39;6.37;;;4.80;;
8281;SDS011;25606;42.686;23.136;2023-06-14T05:16:07;5.43;;;4.33;;
8281;SDS011;25606;42.686;23.136;2023-06-14T05:18:34;7.03;;;4.50;;
8281;SDS011;25606;42.686;23.136;2023-06-14T05:21:02;7.60;;;4.93;;
8281;SDS011;25606;42.686;23.136;2023-06-14T05:23:30;7.90;;;4.67;;
8281;SDS011;25606;42.686;23.136;2023-06-14T05:25:59;8.27;;;5.27;;
8281;SDS011;25606;42.686;23.136;2023-06-14T05:28:28;9.80;;;5.20;;
8281;SDS011;25606;42.686;23.136;2023-06-14T05:30:55;9.07;;;5.27;;
8281;SDS011;25606;42.686;23.136;2023-06-14T05:33:23;8.90;;;4.73;;
8281;SDS011;25606;42.686;23.136;2023-06-14T05:35:50;7.57;;;4.53;;
8281;SDS011;25606;42.686;23.136;2023-06-14T05:38:18;8.90;;;5.30;;
8281;SDS011;25606;42.686;23.136;2023-06-14T05:40:45;5.70;;;4.57;;
8281;SDS011;25606;42.686;23.136;2023-06-14T05:43:14;6.40;;;4.77;;
8281;SDS011;25606;42.686;23.136;2023-06-14T05:45:41;6.53;;;4.47;;
8281;SDS011;25606;42.686;23.136;2023-06-14T05:48:08;7.83;;;5.27;;
8281;SDS011;25606;42.686;23.136;2023-06-14T05:50:36;7.70;;;5.63;;
8281;SDS011;25606;42.686;23.136;2023-06-14T05:53:03;6.43;;;4.83;;
8281;SDS011;25606;42.686;23.136;2023-06-14T05:55:31;6.73;;;4.93;;
8281;SDS011;25606;42.686;23.136;2023-06-14T05:57:58;7.67;;;5.03;;
8281;SDS011;25606;42.686;23.136;2023-06-14T06:00:27;7.90;;;5.37;;
8281;SDS011;25606;42.686;23.136;2023-06-14T06:02:54;7.23;;;5.17;;
8281;SDS011;25606;42.686;23.136;2023-06-14T06:05:23;12.67;;;8.27;;
8281;SDS011;25606;42.686;23.136;2023-06-14T06:07:51;6.10;;;5.20;;
8281;SDS011;25606;42.686;23.136;2023-06-14T06:10:18;7.67;;;5.27;;
8281;SDS011;25606;42.686;23.136;2023-06-14T06:12:46;7.87;;;5.63;;
8281;SDS011;25606;42.686;23.136;2023-06-14T06:15:14;7.80;;;6.30;;
8281;SDS011;25606;42.686;23.136;2023-06-14T06:17:43;11.33;;;5.80;;
8281;SDS011;25606;42.686;23.136;2023-06-14T06:20:10;7.23;;;5.37;;
8281;SDS011;25606;42.686;23.136;2023-06-14T06:22:38;6.00;;;4.83;;
8281;SDS011;25606;42.686;23.136;2023-06-14T06:25:05;7.20;;;5.90;;
8281;SDS011;25606;42.686;23.136;2023-06-14T06:27:33;6.83;;;5.87;;
8281;SDS011;25606;42.686;23.136;2023-06-14T06:30:03;10.17;;;6.07;;
8281;SDS011;25606;42.686;23.136;2023-06-14T06:32:30;10.63;;;7.07;;
8281;SDS011;25606;42.686;23.136;2023-06-14T06:34:59;8.80;;;6.70;;
8281;SDS011;25606;42.686;23.136;2023-06-14T06:37:26;6.37;;;5.10;;
8281;SDS011;25606;42.686;23.136;2023-06-14T06:39:53;8.40;;;5.57;;
8281;SDS011;25606;42.686;23.136;2023-06-14T06:42:21;6.43;;;5.53;;
8281;SDS011;25606;42.686;23.136;2023-06-14T06:44:48;7.87;;;6.40;;
8281;SDS011;25606;42.686;23.136;2023-06-14T06:47:15;12.80;;;6.43;;
8281;SDS011;25606;42.686;23.136;2023-06-14T06:49:42;9.43;;;6.00;;
8281;SDS011;25606;42.686;23.136;2023-06-14T06:52:11;10.80;;;6.87;;
8281;SDS011;25606;42.686;23.136;2023-06-14T06:54:39;11.03;;;6.20;;
8281;SDS011;25606;42.686;23.136;2023-06-14T06:57:06;6.97;;;5.90;;
8281;SDS011;25606;42.686;23.136;2023-06-14T06:59:33;9.13;;;6.33;;
8281;SDS011;25606;42.686;23.136;2023-06-14T07:02:01;7.90;;;6.57;;
8281;SDS011;25606;42.686;23.136;2023-06-14T07:04:28;7.97;;;6.33;;
8281;SDS011;25606;42.686;23.136;2023-06-14T07:06:56;16.17;;;10.00;;
8281;SDS011;25606;42.686;23.136;2023-06-14T07:09:25;12.43;;;8.20;;
8281;SDS011;25606;42.686;23.136;2023-06-14T07:11:52;8.03;;;6.23;;
8281;SDS011;25606;42.686;23.136;2023-06-14T07:14:19;8.67;;;6.10;;
8281;SDS011;25606;42.686;23.136;2023-06-14T07:16:48;10.23;;;6.33;;
8281;SDS011;25606;42.686;23.136;2023-06-14T07:19:15;8.83;;;6.07;;
8281;SDS011;25606;42.686;23.136;2023-06-14T07:21:42;9.40;;;6.00;;
8281;SDS011;25606;42.686;23.136;2023-06-14T07:24:10;8.13;;;5.43;;
8281;SDS011;25606;42.686;23.136;2023-06-14T07:26:39;8.10;;;5.80;;
8281;SDS011;25606;42.686;23.136;2023-06-14T07:29:06;9.23;;;6.43;;
8281;SDS011;25606;42.686;23.136;2023-06-14T07:31:33;8.70;;;6.03;;
8281;SDS011;25606;42.686;23.136;2023-06-14T07:34:00;10.93;;;6.90;;
8281;SDS011;25606;42.686;23.136;2023-06-14T07:36:28;10.57;;;6.87;;
8281;SDS011;25606;42.686;23.136;2023-06-14T07:38:55;13.23;;;6.20;;
8281;SDS011;25606;42.686;23.136;2023-06-14T07:41:23;9.40;;;6.43;;
8281;SDS011;25606;42.686;23.136;2023-06-14T07:43:52;12.10;;;6.60;;
8281;SDS011;25606;42.686;23.136;2023-06-14T07:46:20;10.57;;;6.33;;
8281;SDS011;25606;42.686;23.136;2023-06-14T07:48:47;11.37;;;6.03;;
8281;SDS011;25606;42.686;23.136;2023-06-14T07:51:15;10.00;;;6.63;;
8281;SDS011;25606;42.686;23.136;2023-06-14T07:53:42;10.80;;;6.30;;
8281;SDS011;25606;42.686;23.136;2023-06-14T07:56:10;12.67;;;6.27;;
8281;SDS011;25606;42.686;23.136;2023-06-14T07:58:37;13.80;;;6.87;;
8281;SDS011;25606;42.686;23.136;2023-06-14T08:01:05;12.97;;;7.33;;
8281;SDS011;25606;42.686;23.136;2023-06-14T08:03:33;13.17;;;7.57;;
8281;SDS011;25606;42.686;23.136;2023-06-14T08:06:04;12.03;;;6.73;;
8281;SDS011;25606;42.686;23.136;2023-06-14T08:08:31;11.67;;;7.30;;
8281;SDS011;25606;42.686;23.136;2023-06-14T08:10:59;9.73;;;6.73;;
8281;SDS011;25606;42.686;23.136;2023-06-14T08:13:26;10.60;;;7.23;;
8281;SDS011;25606;42.686;23.136;2023-06-14T08:15:53;12.67;;;7.07;;
8281;SDS011;25606;42.686;23.136;2023-06-14T08:18:24;14.43;;;7.07;;
8281;SDS011;25606;42.686;23.136;2023-06-14T08:20:52;17.65;;;7.72;;
8281;SDS011;25606;42.686;23.136;2023-06-14T08:23:19;31.85;;;16.13;;
8281;SDS011;25606;42.686;23.136;2023-06-14T08:25:47;36.35;;;29.67;;
8281;SDS011;25606;42.686;23.136;2023-06-14T08:28:14;85.15;;;66.03;;
8281;SDS011;25606;42.686;23.136;2023-06-14T08:30:41;78.80;;;66.72;;
8281;SDS011;25606;42.686;23.136;2023-06-14T08:33:09;110.40;;;84.75;;
8281;SDS011;25606;42.686;23.136;2023-06-14T08:35:37;72.15;;;64.60;;
8281;SDS011;25606;42.686;23.136;2023-06-14T08:38:05;26.15;;;14.13;;
8281;SDS011;25606;42.686;23.136;2023-06-14T08:40:32;26.08;;;13.60;;
8281;SDS011;25606;42.686;23.136;2023-06-14T08:43:03;27.67;;;10.27;;
8281;SDS011;25606;42.686;23.136;2023-06-14T08:45:30;21.65;;;8.82;;
8281;SDS011;25606;42.686;23.136;2023-06-14T08:47:58;23.67;;;11.55;;
8281;SDS011;25606;42.686;23.136;2023-06-14T08:50:26;18.05;;;8.32;;
8281;SDS011;25606;42.686;23.136;2023-06-14T08:52:57;19.27;;;8.65;;
8281;SDS011;25606;42.686;23.136;2023-06-14T08:55:25;13.60;;;8.18;;
8281;SDS011;25606;42.686;23.136;2023-06-14T08:57:54;16.02;;;7.88;;
8281;SDS011;25606;42.686;23.136;2023-06-14T09:00:22;18.63;;;8.73;;
8281;SDS011;25606;42.686;23.136;2023-06-14T09:02:50;17.83;;;8.33;;
8281;SDS011;25606;42.686;23.136;2023-06-14T09:05:22;18.20;;;8.43;;
8281;SDS011;25606;42.686;23.136;2023-06-14T09:07:50;28.20;;;14.40;;
8281;SDS011;25606;42.686;23.136;2023-06-14T09:10:21;35.22;;;25.25;;
8281;SDS011;25606;42.686;23.136;2023-06-14T09:12:50;32.97;;;24.48;;
8281;SDS011;25606;42.686;23.136;2023-06-14T09:15:18;35.42;;;22.77;;
8281;SDS011;25606;42.686;23.136;2023-06-14T09:17:45;23.73;;;9.80;;
8281;SDS011;25606;42.686;23.136;2023-06-14T09:20:13;18.13;;;8.85;;
8281;SDS011;25606;42.686;23.136;2023-06-14T09:22:43;19.23;;;9.93;;
8281;SDS011;25606;42.686;23.136;2023-06-14T09:25:11;16.30;;;8.80;;
8281;SDS011;25606;42.686;23.136;2023-06-14T09:27:41;16.88;;;8.38;;
8281;SDS011;25606;42.686;23.136;2023-06-14T09:30:09;16.73;;;9.03;;
8281;SDS011;25606;42.686;23.136;2023-06-14T09:32:37;13.47;;;8.53;;
8281;SDS011;25606;42.686;23.136;2023-06-14T09:35:05;19.10;;;9.60;;
8281;SDS011;25606;42.686;23.136;2023-06-14T09:37:33;16.60;;;9.90;;
8281;SDS011;25606;42.686;23.136;2023-06-14T09:40:02;15.70;;;9.07;;
8281;SDS011;25606;42.686;23.136;2023-06-14T09:42:30;18.53;;;9.63;;
8281;SDS011;25606;42.686;23.136;2023-06-14T09:45:02;25.70;;;10.82;;
8281;SDS011;25606;42.686;23.136;2023-06-14T09:47:30;37.10;;;24.88;;
8281;SDS011;25606;42.686;23.136;2023-06-14T09:49:57;47.20;;;37.72;;
8281;SDS011;25606;42.686;23.136;2023-06-14T09:52:25;35.72;;;29.17;;
8281;SDS011;25606;42.686;23.136;2023-06-14T09:54:53;39.13;;;27.02;;
8281;SDS011;25606;42.686;23.136;2023-06-14T09:57:22;30.75;;;21.90;;
8281;SDS011;25606;42.686;23.136;2023-06-14T09:59:52;36.45;;;26.27;;
8281;SDS011;25606;42.686;23.136;2023-06-14T10:02:24;29.30;;;19.60;;
8281;SDS011;25606;42.686;23.136;2023-06-14T10:04:54;79.00;;;70.80;;
8281;SDS011;25606;42.686;23.136;2023-06-14T10:07:26;55.70;;;48.53;;
8281;SDS011;25606;42.686;23.136;2023-06-14T10:09:55;60.58;;;53.15;;
8281;SDS011;25606;42.686;23.136;2023-06-14T10:12:22;28.52;;;20.75;;
8281;SDS011;25606;42.686;23.136;2023-06-14T10:14:50;27.70;;;16.65;;
8281;SDS011;25606;42.686;23.136;2023-06-14T10:17:20;28.10;;;11.07;;
8281;SDS011;25606;42.686;23.136;2023-06-14T10:19:50;19.80;;;9.80;;
8281;SDS011;25606;42.686;23.136;2023-06-14T10:22:23;23.38;;;11.95;;
8281;SDS011;25606;42.686;23.136;2023-06-14T10:24:53;25.48;;;12.77;;
8281;SDS011;25606;42.686;23.136;2023-06-14T10:27:20;21.75;;;10.13;;
8281;SDS011;25606;42.686;23.136;2023-06-14T10:30:03;18.63;;;9.57;;
8281;SDS011;25606;42.686;23.136;2023-06-14T10:32:31;22.63;;;9.80;;
8281;SDS011;25606;42.686;23.136;2023-06-14T10:35:00;24.05;;;11.02;;
8281;SDS011;25606;42.686;23.136;2023-06-14T10:37:28;20.38;;;10.02;;
8281;SDS011;25606;42.686;23.136;2023-06-14T10:39:56;23.50;;;10.38;;
8281;SDS011;25606;42.686;23.136;2023-06-14T10:42:23;18.35;;;9.77;;
8281;SDS011;25606;42.686;23.136;2023-06-14T10:44:54;28.80;;;14.52;;
8281;SDS011;25606;42.686;23.136;2023-06-14T10:47:23;33.10;;;25.15;;
8281;SDS011;25606;42.686;23.136;2023-06-14T10:49:51;50.45;;;43.47;;
8281;SDS011;25606;42.686;23.136;2023-06-14T10:52:24;35.60;;;23.03;;
8281;SDS011;25606;42.686;23.136;2023-06-14T10:54:59;28.90;;;16.67;;
8281;SDS011;25606;42.686;23.136;2023-06-14T10:57:26;29.80;;;17.70;;
8281;SDS011;25606;42.686;23.136;2023-06-14T10:59:54;25.85;;;16.23;;
8281;SDS011;25606;42.686;23.136;2023-06-14T11:02:29;19.38;;;9.68;;
8281;SDS011;25606;42.686;23.136;2023-06-14T11:05:04;24.65;;;10.93;;
8281;SDS011;25606;42.686;23.136;2023-06-14T11:07:38;22.67;;;10.95;;
8281;SDS011;25606;42.686;23.136;2023-06-14T11:10:10;20.08;;;12.95;;
8281;SDS011;25606;42.686;23.136;2023-06-14T11:12:42;27.85;;;18.58;;
8281;SDS011;25606;42.686;23.136;2023-06-14T11:15:12;38.53;;;25.38;;
8281;SDS011;25606;42.686;23.136;2023-06-14T11:17:49;43.85;;;35.92;;
8281;SDS011;25606;42.686;23.136;2023-06-14T11:20:18;29.60;;;18.15;;
8281;SDS011;25606;42.686;23.136;2023-06-14T11:22:47;42.22;;;30.70;;
8281;SDS011;25606;42.686;23.136;2023-06-14T11:25:15;36.08;;;21.58;;
8281;SDS011;25606;42.686;23.136;2023-06-14T11:27:43;25.88;;;14.30;;
8281;SDS011;25606;42.686;23.136;2023-06-14T11:30:12;41.83;;;30.55;;
8281;SDS011;25606;42.686;23.136;2023-06-14T11:32:40;62.63;;;55.78;;
8281;SDS011;25606;42.686;23.136;2023-06-14T11:35:08;81.10;;;72.38;;
8281;SDS011;25606;42.686;23.136;2023-06-14T11:37:36;95.65;;;85.40;;
8281;SDS011;25606;42.686;23.136;2023-06-14T11:40:08;122.68;;;109.63;;
8281;SDS011;25606;42.686;23.136;2023-06-14T11:42:40;145.15;;;129.50;;
8281;SDS011;25606;42.686;23.136;2023-06-14T11:45:09;168.93;;;151.25;;
8281;SDS011;25606;42.686;23.136;2023-06-14T11:47:37;177.70;;;159.65;;
8281;SDS011;25606;42.686;23.136;2023-06-14T11:50:05;173.05;;;155.63;;
8281;SDS011;25606;42.686;23.136;2023-06-14T11:52:33;179.57;;;161.18;;
8281;SDS011;25606;42.686;23.136;2023-06-14T11:55:01;181.35;;;162.93;;
8281;SDS011;25606;42.686;23.136;2023-06-14T11:57:31;171.93;;;154.57;;
8281;SDS011;25606;42.686;23.136;2023-06-14T12:00:02;147.55;;;133.13;;
8281;SDS011;25606;42.686;23.136;2023-06-14T12:02:32;137.98;;;123.65;;
8281;SDS011;25606;42.686;23.136;2023-06-14T12:05:04;61.15;;;53.63;;
8281;SDS011;25606;42.686;23.136;2023-06-14T12:07:32;39.17;;;26.15;;
8281;SDS011;25606;42.686;23.136;2023-06-14T12:10:03;49.33;;;43.95;;
8281;SDS011;25606;42.686;23.136;2023-06-14T12:12:35;54.95;;;41.30;;
8281;SDS011;25606;42.686;23.136;2023-06-14T12:15:03;81.15;;;69.80;;
8281;SDS011;25606;42.686;23.136;2023-06-14T12:17:32;89.25;;;80.03;;
8281;SDS011;25606;42.686;23.136;2023-06-14T12:20:04;114.63;;;102.53;;
8281;SDS011;25606;42.686;23.136;2023-06-14T12:22:33;112.30;;;100.63;;
8281;SDS011;25606;42.686;23.136;2023-06-14T12:25:01;131.35;;;117.43;;
8281;SDS011;25606;42.686;23.136;2023-06-14T12:27:28;91.50;;;82.25;;
8281;SDS011;25606;42.686;23.136;2023-06-14T12:30:00;78.55;;;70.53;;
8281;SDS011;25606;42.686;23.136;2023-06-14T12:32:28;52.88;;;43.15;;
8281;SDS011;25606;42.686;23.136;2023-06-14T12:34:56;40.75;;;34.20;;
8281;SDS011;25606;42.686;23.136;2023-06-14T12:37:23;40.08;;;29.30;;
8281;SDS011;25606;42.686;23.136;2023-06-14T12:39:50;22.52;;;13.48;;
8281;SDS011;25606;42.686;23.136;2023-06-14T12:42:17;24.48;;;12.23;;
8281;SDS011;25606;42.686;23.136;2023-06-14T12:44:45;21.17;;;10.32;;
8281;SDS011;25606;42.686;23.136;2023-06-14T12:47:13;25.60;;;10.50;;
8281;SDS011;25606;42.686;23.136;2023-06-14T12:49:41;20.95;;;10.10;;
8281;SDS011;25606;42.686;23.136;2023-06-14T12:52:08;23.95;;;11.43;;
8281;SDS011;25606;42.686;23.136;2023-06-14T12:54:35;20.48;;;9.90;;
8281;SDS011;25606;42.686;23.136;2023-06-14T12:57:04;19.58;;;9.27;;
8281;SDS011;25606;42.686;23.136;2023-06-14T12:59:32;17.80;;;8.40;;
8281;SDS011;25606;42.686;23.136;2023-06-14T13:02:00;14.45;;;7.93;;
8281;SDS011;25606;42.686;23.136;2023-06-14T13:04:38;20.00;;;7.77;;
8281;SDS011;25606;42.686;23.136;2023-06-14T13:07:05;20.27;;;9.68;;
8281;SDS011;25606;42.686;23.136;2023-06-14T13:09:33;15.03;;;8.73;;
8281;SDS011;25606;42.686;23.136;2023-06-14T13:12:00;15.23;;;8.23;;
8281;SDS011;25606;42.686;23.136;2023-06-14T13:14:27;16.13;;;9.03;;
8281;SDS011;25606;42.686;23.136;2023-06-14T13:16:55;18.20;;;9.63;;
8281;SDS011;25606;42.686;23.136;2023-06-14T13:19:22;15.10;;;9.23;;
8281;SDS011;25606;42.686;23.136;2023-06-14T13:21:51;14.83;;;9.13;;
8281;SDS011;25606;42.686;23.136;2023-06-14T13:24:18;13.30;;;9.60;;
8281;SDS011;25606;42.686;23.136;2023-06-14T13:26:45;12.33;;;9.37;;
8281;SDS011;25606;42.686;23.136;2023-06-14T13:29:12;13.33;;;9.60;;
8281;SDS011;25606;42.686;23.136;2023-06-14T13:31:40;13.33;;;9.53;;
8281;SDS011;25606;42.686;23.136;2023-06-14T13:34:07;16.23;;;9.57;;
8281;SDS011;25606;42.686;23.136;2023-06-14T13:36:34;15.93;;;10.00;;
8281;SDS011;25606;42.686;23.136;2023-06-14T13:39:03;13.47;;;9.73;;
8281;SDS011;25606;42.686;23.136;2023-06-14T13:41:31;17.83;;;10.43;;
8281;SDS011;25606;42.686;23.136;2023-06-14T13:43:59;17.23;;;11.57;;
8281;SDS011;25606;42.686;23.136;2023-06-14T13:46:29;15.07;;;9.80;;
8281;SDS011;25606;42.686;23.136;2023-06-14T13:48:57;14.83;;;9.60;;
8281;SDS011;25606;42.686;23.136;2023-06-14T13:51:26;13.50;;;9.40;;
8281;SDS011;25606;42.686;23.136;2023-06-14T13:53:54;14.17;;;7.97;;
8281;SDS011;25606;42.686;23.136;2023-06-14T13:56:23;11.50;;;7.30;;
8281;SDS011;25606;42.686;23.136;2023-06-14T13:58:50;9.57;;;7.03;;
8281;SDS011;25606;42.686;23.136;2023-06-14T14:01:18;11.07;;;6.80;;
8281;SDS011;25606;42.686;23.136;2023-06-14T14:03:46;6.90;;;6.20;;
8281;SDS011;25606;42.686;23.136;2023-06-14T14:06:13;6.33;;;5.70;;
8281;SDS011;25606;42.686;23.136;2023-06-14T14:08:40;6.87;;;6.23;;
8281;SDS011;25606;42.686;23.136;2023-06-14T14:11:08;7.57;;;5.97;;
8281;SDS011;25606;42.686;23.136;2023-06-14T14:13:37;6.83;;;6.10;;
8281;SDS011;25606;42.686;23.136;2023-06-14T14:16:05;6.47;;;5.80;;
8281;SDS011;25606;42.686;23.136;2023-06-14T14:18:32;7.63;;;6.13;;
8281;SDS011;25606;42.686;23.136;2023-06-14T14:21:01;6.37;;;5.63;;
8281;SDS011;25606;42.686;23.136;2023-06-14T14:23:28;7.10;;;6.37;;
8281;SDS011;25606;42.686;23.136;2023-06-14T14:25:55;7.20;;;6.47;;
8281;SDS011;25606;42.686;23.136;2023-06-14T14:28:23;13.30;;;7.63;;
8281;SDS011;25606;42.686;23.136;2023-06-14T14:30:52;8.00;;;7.07;;
8281;SDS011;25606;42.686;23.136;2023-06-14T14:33:20;7.47;;;6.53;;
8281;SDS011;25606;42.686;23.136;2023-06-14T14:35:47;6.80;;;6.07;;
8281;SDS011;25606;42.686;23.136;2023-06-14T14:38:14;6.43;;;5.73;;
8281;SDS011;25606;42.686;23.136;2023-06-14T14:40:42;7.40;;;6.23;;
8281;SDS011;25606;42.686;23.136;2023-06-14T14:43:10;6.87;;;6.07;;
8281;SDS011;25606;42.686;23.136;2023-06-14T14:45:37;6.67;;;5.90;;